Terminal Aerodrome Forecast
Issued by NWS Memphis, TN

Home | Current Version | Previous Version | Text Only | Print | Product List | Glossary On
Versions: 1 2 3 4 5 6 7 8 9 10 11 12 13 14 15 16 17 18 19 20 21 22 23 24 25 26 27 28 29 30 31 32 33
425
FTUS44 KMEG 221741
TAFMEM
TAF
KMEM 221741Z 2218/2318 12004KT P6SM SCT025
     FM222100 17005KT P6SM SCT035
     FM230100 18003KT P6SM SCT250
     FM230900 18003KT 6SM BR SCT012
     FM231300 18005KT P6SM FEW012 BKN020
     FM231700 19009KT P6SM BKN035=

USA.gov is the U.S. government's official web portal to all federal, state and local government web resources and services.